sensor_id;sensor_type;location;lat;lon;timestamp;pressure;altitude;pressure_sealevel;temperature;humidity
59315;BME280;46521;50.160;20.802;2023-04-08T00:08:17;99998.16;;;1.37;82.38
59315;BME280;46521;50.160;20.802;2023-04-08T00:18:19;100000.88;;;1.35;82.55
59315;BME280;46521;50.160;20.802;2023-04-08T00:28:20;99999.62;;;1.41;82.87
59315;BME280;46521;50.160;20.802;2023-04-08T00:38:22;100002.78;;;1.46;82.43
59315;BME280;46521;50.160;20.802;2023-04-08T00:48:24;100002.38;;;1.52;82.67
59315;BME280;46521;50.160;20.802;2023-04-08T00:58:26;100007.19;;;1.58;83.02
59315;BME280;46521;50.160;20.802;2023-04-08T01:08:29;100008.43;;;1.66;83.11
59315;BME280;46521;50.160;20.802;2023-04-08T01:18:34;100011.76;;;1.68;82.95
59315;BME280;46521;50.160;20.802;2023-04-08T01:28:37;100011.45;;;1.72;83.01
59315;BME280;46521;50.160;20.802;2023-04-08T01:38:39;100000.52;;;1.80;83.17
59315;BME280;46521;50.160;20.802;2023-04-08T01:48:41;100004.49;;;1.86;83.01
59315;BME280;46521;50.160;20.802;2023-04-08T01:58:51;100004.39;;;1.87;82.62
59315;BME280;46521;50.160;20.802;2023-04-08T02:08:55;100007.52;;;1.92;82.83
59315;BME280;46521;50.160;20.802;2023-04-08T02:19:07;100015.03;;;1.84;82.46
59315;BME280;46521;50.160;20.802;2023-04-08T02:29:12;100013.86;;;1.75;82.82
59315;BME280;46521;50.160;20.802;2023-04-08T02:39:14;100023.46;;;1.75;82.94
59315;BME280;46521;50.160;20.802;2023-04-08T02:49:16;100027.09;;;1.72;82.90
59315;BME280;46521;50.160;20.802;2023-04-08T02:59:17;100039.31;;;1.72;83.35
59315;BME280;46521;50.160;20.802;2023-04-08T03:09:19;100042.84;;;1.71;83.22
59315;BME280;46521;50.160;20.802;2023-04-08T03:19:21;100050.77;;;1.69;83.38
59315;BME280;46521;50.160;20.802;2023-04-08T03:29:22;100053.38;;;1.69;82.85
59315;BME280;46521;50.160;20.802;2023-04-08T03:39:24;100051.53;;;1.71;83.25
59315;BME280;46521;50.160;20.802;2023-04-08T03:49:26;100072.69;;;1.67;82.58
59315;BME280;46521;50.160;20.802;2023-04-08T03:59:27;100072.89;;;1.64;83.04
59315;BME280;46521;50.160;20.802;2023-04-08T04:09:29;100082.69;;;1.60;83.11
59315;BME280;46521;50.160;20.802;2023-04-08T04:19:30;100106.05;;;1.61;82.79
59315;BME280;46521;50.160;20.802;2023-04-08T04:29:32;100112.92;;;1.62;83.07
59315;BME280;46521;50.160;20.802;2023-04-08T04:39:33;100121.23;;;1.55;83.01
59315;BME280;46521;50.160;20.802;2023-04-08T04:49:35;100127.50;;;1.52;83.03
59315;BME280;46521;50.160;20.802;2023-04-08T04:59:36;100139.19;;;1.59;83.28
59315;BME280;46521;50.160;20.802;2023-04-08T05:09:38;100140.48;;;1.67;82.96
59315;BME280;46521;50.160;20.802;2023-04-08T05:19:39;100169.70;;;1.72;83.35
59315;BME280;46521;50.160;20.802;2023-04-08T05:29:41;100169.16;;;1.67;83.22
59315;BME280;46521;50.160;20.802;2023-04-08T05:39:42;100199.16;;;1.59;83.34
59315;BME280;46521;50.160;20.802;2023-04-08T05:49:44;100195.52;;;1.62;83.08
59315;BME280;46521;50.160;20.802;2023-04-08T05:59:45;100198.67;;;1.67;82.83
59315;BME280;46521;50.160;20.802;2023-04-08T06:09:47;100195.97;;;1.69;83.02
59315;BME280;46521;50.160;20.802;2023-04-08T06:19:48;100198.72;;;1.80;83.06
59315;BME280;46521;50.160;20.802;2023-04-08T06:29:50;100216.39;;;1.89;83.50
59315;BME280;46521;50.160;20.802;2023-04-08T06:39:52;100230.29;;;1.90;83.44
59315;BME280;46521;50.160;20.802;2023-04-08T06:49:53;100238.55;;;1.96;82.79
59315;BME280;46521;50.160;20.802;2023-04-08T06:59:55;100256.62;;;2.00;82.76
59315;BME280;46521;50.160;20.802;2023-04-08T07:09:57;100271.54;;;1.97;83.01
59315;BME280;46521;50.160;20.802;2023-04-08T07:19:58;100272.27;;;2.00;83.39
59315;BME280;46521;50.160;20.802;2023-04-08T07:30:00;100269.37;;;2.04;83.18
59315;BME280;46521;50.160;20.802;2023-04-08T07:40:01;100277.05;;;2.20;82.85
59315;BME280;46521;50.160;20.802;2023-04-08T07:50:03;100265.31;;;2.40;82.93
59315;BME280;46521;50.160;20.802;2023-04-08T08:00:05;100268.07;;;2.64;82.40
59315;BME280;46521;50.160;20.802;2023-04-08T08:10:08;100275.09;;;2.77;82.62
59315;BME280;46521;50.160;20.802;2023-04-08T08:20:10;100271.14;;;2.84;82.13
59315;BME280;46521;50.160;20.802;2023-04-08T08:30:12;100278.13;;;2.83;82.71
59315;BME280;46521;50.160;20.802;2023-04-08T08:40:13;100287.34;;;2.89;82.48
59315;BME280;46521;50.160;20.802;2023-04-08T08:50:16;100285.45;;;2.91;82.03
59315;BME280;46521;50.160;20.802;2023-04-08T09:00:17;100292.36;;;2.92;82.73
59315;BME280;46521;50.160;20.802;2023-04-08T09:10:27;100294.55;;;2.98;82.67
59315;BME280;46521;50.160;20.802;2023-04-08T09:20:29;100307.63;;;2.98;82.08
59315;BME280;46521;50.160;20.802;2023-04-08T09:30:31;100313.58;;;3.00;82.10
59315;BME280;46521;50.160;20.802;2023-04-08T09:40:33;100313.78;;;3.10;82.12
59315;BME280;46521;50.160;20.802;2023-04-08T09:50:48;100313.06;;;3.21;82.23
59315;BME280;46521;50.160;20.802;2023-04-08T10:00:51;100313.06;;;3.21;82.84
59315;BME280;46521;50.160;20.802;2023-04-08T10:10:54;100321.23;;;3.29;82.03
59315;BME280;46521;50.160;20.802;2023-04-08T10:20:56;100307.82;;;3.34;82.67
59315;BME280;46521;50.160;20.802;2023-04-08T10:30:57;100321.13;;;3.43;82.88
59315;BME280;46521;50.160;20.802;2023-04-08T10:40:59;100332.62;;;3.41;82.50
59315;BME280;46521;50.160;20.802;2023-04-08T10:51:02;100317.44;;;3.46;82.20
59315;BME280;46521;50.160;20.802;2023-04-08T11:01:07;100318.59;;;3.55;82.47
59315;BME280;46521;50.160;20.802;2023-04-08T11:11:09;100323.98;;;3.77;82.93
59315;BME280;46521;50.160;20.802;2023-04-08T11:21:11;100319.25;;;3.95;82.56
59315;BME280;46521;50.160;20.802;2023-04-08T11:31:13;100318.88;;;4.13;82.43
59315;BME280;46521;50.160;20.802;2023-04-08T11:41:15;100309.92;;;4.28;82.82
59315;BME280;46521;50.160;20.802;2023-04-08T11:51:17;100310.91;;;4.39;82.44
59315;BME280;46521;50.160;20.802;2023-04-08T12:01:19;100298.81;;;4.49;82.38
59315;BME280;46521;50.160;20.802;2023-04-08T12:11:21;100287.78;;;4.57;82.72
59315;BME280;46521;50.160;20.802;2023-04-08T12:21:23;100282.34;;;4.71;82.16
59315;BME280;46521;50.160;20.802;2023-04-08T12:31:25;100274.55;;;4.94;82.24
59315;BME280;46521;50.160;20.802;2023-04-08T12:41:27;100275.74;;;5.12;82.01
59315;BME280;46521;50.160;20.802;2023-04-08T12:51:29;100281.14;;;5.33;82.45
59315;BME280;46521;50.160;20.802;2023-04-08T13:01:31;100279.57;;;5.42;82.06
59315;BME280;46521;50.160;20.802;2023-04-08T13:11:32;100278.62;;;5.54;82.15
59315;BME280;46521;50.160;20.802;2023-04-08T13:21:34;100274.33;;;5.65;82.24
59315;BME280;46521;50.160;20.802;2023-04-08T13:31:35;100282.19;;;5.76;81.73
59315;BME280;46521;50.160;20.802;2023-04-08T13:41:37;100277.54;;;5.68;81.32
59315;BME280;46521;50.160;20.802;2023-04-08T13:51:38;100277.30;;;5.71;80.92
59315;BME280;46521;50.160;20.802;2023-04-08T14:01:43;100268.33;;;5.85;82.11
59315;BME280;46521;50.160;20.802;2023-04-08T14:11:45;100270.22;;;5.94;81.41
59315;BME280;46521;50.160;20.802;2023-04-08T14:21:47;100266.27;;;6.11;81.45
59315;BME280;46521;50.160;20.802;2023-04-08T14:31:49;100270.26;;;6.27;81.14
59315;BME280;46521;50.160;20.802;2023-04-08T14:41:50;100245.04;;;6.36;81.87
59315;BME280;46521;50.160;20.802;2023-04-08T14:51:52;100250.48;;;6.44;81.32
59315;BME280;46521;50.160;20.802;2023-04-08T15:01:53;100254.92;;;6.43;80.87
59315;BME280;46521;50.160;20.802;2023-04-08T15:11:55;100254.72;;;6.35;81.05
59315;BME280;46521;50.160;20.802;2023-04-08T15:21:58;100253.42;;;6.29;81.30
59315;BME280;46521;50.160;20.802;2023-04-08T15:32:00;100248.09;;;6.20;81.26
59315;BME280;46521;50.160;20.802;2023-04-08T15:42:01;100259.92;;;6.14;80.69
59315;BME280;46521;50.160;20.802;2023-04-08T15:52:04;100260.42;;;6.08;81.09
59315;BME280;46521;50.160;20.802;2023-04-08T16:02:06;100272.52;;;5.99;81.32
59315;BME280;46521;50.160;20.802;2023-04-08T16:12:08;100276.20;;;5.97;81.64
59315;BME280;46521;50.160;20.802;2023-04-08T16:22:09;100278.92;;;5.95;81.57
59315;BME280;46521;50.160;20.802;2023-04-08T16:32:11;100273.80;;;5.93;81.80
59315;BME280;46521;50.160;20.802;2023-04-08T16:42:13;100272.63;;;5.86;81.76
59315;BME280;46521;50.160;20.802;2023-04-08T16:52:14;100275.87;;;5.78;81.41
59315;BME280;46521;50.160;20.802;2023-04-08T17:02:16;100280.63;;;5.73;81.38
59315;BME280;46521;50.160;20.802;2023-04-08T17:12:17;100298.66;;;5.67;81.68
59315;BME280;46521;50.160;20.802;2023-04-08T17:22:19;100299.95;;;5.61;81.75
59315;BME280;46521;50.160;20.802;2023-04-08T17:32:21;100314.41;;;5.55;81.87
59315;BME280;46521;50.160;20.802;2023-04-08T17:42:23;100324.20;;;5.53;81.96
59315;BME280;46521;50.160;20.802;2023-04-08T17:52:24;100333.36;;;5.48;82.04
59315;BME280;46521;50.160;20.802;2023-04-08T18:02:26;100334.78;;;5.40;82.12
59315;BME280;46521;50.160;20.802;2023-04-08T18:12:29;100340.61;;;5.33;82.05
59315;BME280;46521;50.160;20.802;2023-04-08T18:22:31;100341.57;;;5.20;81.63
59315;BME280;46521;50.160;20.802;2023-04-08T18:32:32;100370.02;;;5.14;82.08
59315;BME280;46521;50.160;20.802;2023-04-08T18:42:33;100363.49;;;5.19;82.15
59315;BME280;46521;50.160;20.802;2023-04-08T18:52:35;100370.19;;;5.23;82.05
59315;BME280;46521;50.160;20.802;2023-04-08T19:02:37;100363.49;;;5.19;82.17
59315;BME280;46521;50.160;20.802;2023-04-08T19:12:38;100362.61;;;5.08;81.93
59315;BME280;46521;50.160;20.802;2023-04-08T19:22:40;100369.17;;;5.02;82.30
59315;BME280;46521;50.160;20.802;2023-04-08T19:32:41;100364.73;;;4.91;82.40
59315;BME280;46521;50.160;20.802;2023-04-08T19:42:43;100358.36;;;4.82;82.13
59315;BME280;46521;50.160;20.802;2023-04-08T19:52:44;100363.80;;;4.68;82.19
59315;BME280;46521;50.160;20.802;2023-04-08T20:02:49;100367.94;;;4.59;82.29
59315;BME280;46521;50.160;20.802;2023-04-08T20:12:53;100366.92;;;4.49;82.27
59315;BME280;46521;50.160;20.802;2023-04-08T20:22:55;100369.77;;;4.46;82.46
59315;BME280;46521;50.160;20.802;2023-04-08T20:32:57;100371.00;;;4.53;82.73
59315;BME280;46521;50.160;20.802;2023-04-08T20:42:58;100370.78;;;4.56;82.80
59315;BME280;46521;50.160;20.802;2023-04-08T20:53:00;100372.05;;;4.50;82.50
59315;BME280;46521;50.160;20.802;2023-04-08T21:03:01;100381.51;;;4.40;82.16
59315;BME280;46521;50.160;20.802;2023-04-08T21:13:03;100378.98;;;4.14;82.18
59315;BME280;46521;50.160;20.802;2023-04-08T21:33:10;100361.73;;;3.99;82.58
59315;BME280;46521;50.160;20.802;2023-04-08T21:43:11;100367.19;;;3.96;82.48
59315;BME280;46521;50.160;20.802;2023-04-08T21:53:13;100374.13;;;3.71;82.40
59315;BME280;46521;50.160;20.802;2023-04-08T22:03:14;100376.03;;;3.56;82.58
59315;BME280;46521;50.160;20.802;2023-04-08T22:13:16;100373.31;;;3.45;82.43
59315;BME280;46521;50.160;20.802;2023-04-08T22:23:18;100379.58;;;3.30;82.65
59315;BME280;46521;50.160;20.802;2023-04-08T22:33:20;100378.09;;;3.13;82.28
59315;BME280;46521;50.160;20.802;2023-04-08T22:43:21;100376.27;;;2.87;82.32
59315;BME280;46521;50.160;20.802;2023-04-08T22:53:23;100387.52;;;2.75;82.48
59315;BME280;46521;50.160;20.802;2023-04-08T23:03:24;100392.41;;;2.67;81.80
59315;BME280;46521;50.160;20.802;2023-04-08T23:13:26;100393.09;;;2.56;81.80
59315;BME280;46521;50.160;20.802;2023-04-08T23:23:28;100393.72;;;2.60;82.45
59315;BME280;46521;50.160;20.802;2023-04-08T23:33:29;100384.56;;;2.67;82.65
59315;BME280;46521;50.160;20.802;2023-04-08T23:43:31;100377.76;;;2.64;82.14
